Time;durP1;ratioP1;P1;durP2;ratioP2;P2;SDS_P1;SDS_P2;PMS_P1;PMS_P2;Temp;Humidity;BMP_temperature;BMP_pressure;BME280_temperature;BME280_humidity;BME280_pressure;Samples;Min_cycle;Max_cycle;Signal;HPM_P1;HPM_P2
2021/07/08 00:15:34;;;;;;;10.53;9.63;;;;;;;27.69;71.36;100790.75;20610461;27;8275137;-57
2021/07/08 00:25:35;;;;;;;9.57;8.73;;;;;;;27.43;70.64;100781.22;20891678;28;20742;-63
2021/07/08 00:35:37;;;;;;;8.37;7.57;;;;;;;27.15;71.61;100783.09;20889801;28;20299;-57
2021/07/08 01:26:02;;;;;;;5.77;5.33;;;;;;;27.04;72.51;100791.81;20766323;27;8363956;-59
2021/07/08 01:36:03;;;;;;;4.63;4.33;;;;;;;27.21;72.05;100813.28;21040850;28;20283;-59
2021/07/08 01:56:14;;;;;;;5.17;4.50;;;;;;;27.54;70.30;100819.06;20616103;27;8278605;-56
2021/07/08 02:16:26;;;;;;;4.57;4.17;;;;;;;27.79;68.97;100822.28;20539056;27;8036453;-56
2021/07/08 02:26:26;;;;;;;4.67;4.27;;;;;;;27.68;68.68;100830.19;20809601;28;20255;-56
2021/07/08 02:36:27;;;;;;;5.70;5.20;;;;;;;27.65;68.85;100825.13;20808697;28;20223;-61
2021/07/08 02:46:27;;;;;;;4.37;4.07;;;;;;;27.77;68.40;100842.75;20807554;28;20251;-57
2021/07/08 02:56:28;;;;;;;8.33;5.43;;;;;;;27.78;69.49;100837.03;20807104;28;20258;-63
2021/07/08 03:06:28;;;;;;;9.77;8.03;;;;;;;27.59;69.84;100843.22;20806167;28;20308;-61
2021/07/08 03:36:30;;;;;;;22.37;18.20;;;;;;;27.84;71.28;100868.34;20450178;27;8271560;-56
2021/07/08 03:46:32;;;;;;;34.17;22.20;;;;;;;27.88;71.65;100875.97;20727414;28;20233;-56
2021/07/08 03:56:32;;;;;;;31.20;23.87;;;;;;;27.69;72.42;100882.13;20726807;28;20224;-63
2021/07/08 04:06:33;;;;;;;35.00;25.93;;;;;;;27.48;73.61;100871.13;20725891;28;20222;-56
2021/07/08 04:36:36;;;;;;;43.87;28.77;;;;;;;27.56;73.56;100885.56;20608916;27;8300935;-56
2021/07/08 04:46:36;;;;;;;44.17;29.13;;;;;;;27.73;73.04;100885.31;20891420;28;20689;-56
2021/07/08 04:56:37;;;;;;;46.47;30.75;;;;;;;27.89;73.57;100905.13;20862271;28;20257;-57
2021/07/08 05:06:38;;;;;;;44.83;30.00;;;;;;;28.21;72.71;100903.72;20823697;28;20299;-57
2021/07/08 05:26:54;;;;;;;41.87;30.17;;;;;;;29.82;65.09;100902.38;20750805;27;8401087;-57
2021/07/08 05:47:03;;;;;;;42.00;30.60;;;;;;;29.52;65.84;100929.41;20616346;27;8293173;-60
2021/07/08 05:57:04;;;;;;;31.83;24.43;;;;;;;29.84;66.16;100947.03;20895361;28;20703;-62
2021/07/08 06:07:05;;;;;;;23.87;20.77;;;;;;;30.39;64.72;100954.09;20896608;28;20869;-58
2021/07/08 06:17:07;;;;;;;25.53;22.53;;;;;;;31.38;61.90;100965.78;20901329;28;20735;-58
2021/07/08 06:27:07;;;;;;;23.10;20.80;;;;;;;31.25;60.97;100981.53;20884974;28;20261;-57
2021/07/08 06:37:08;;;;;;;25.47;22.73;;;;;;;31.06;60.97;100992.38;20900933;28;20238;-59
2021/07/08 06:47:19;;;;;;;34.67;28.00;;;;;;;30.44;61.17;100985.44;20878925;28;20227;-62
2021/07/08 06:57:22;;;;;;;26.33;23.53;;;;;;;29.62;63.37;101015.97;20843860;28;20247;-57
2021/07/08 07:07:22;;;;;;;28.73;25.57;;;;;;;29.41;64.03;101009.75;20824722;28;20389;-58
2021/07/08 07:27:32;;;;;;;29.07;25.90;;;;;;;30.26;61.40;101004.50;20456732;27;8358245;-60
2021/07/08 07:37:33;;;;;;;25.53;22.87;;;;;;;31.23;62.07;101022.28;20796593;28;20289;-57
2021/07/08 07:53:14;;;;;;;24.88;22.38;;;;;;;33.24;57.08;101026.88;20485686;27;8394094;-64
2021/07/08 08:03:15;;;;;;;28.27;25.40;;;;;;;33.05;56.20;101034.31;20725909;28;20240;-63
2021/07/08 08:13:22;;;;;;;27.17;24.38;;;;;;;33.26;55.83;101036.66;20791970;28;20233;-63
2021/07/08 08:23:23;;;;;;;29.05;26.17;;;;;;;33.48;55.01;101033.41;20769783;28;20323;-63
2021/07/08 08:33:30;;;;;;;28.90;25.85;;;;;;;33.95;52.50;101032.59;20746594;28;20767;-63
2021/07/08 08:43:31;;;;;;;26.02;23.45;;;;;;;35.30;51.04;101020.75;20797530;28;20338;-63
2021/07/08 08:53:31;;;;;;;22.98;20.85;;;;;;;36.98;49.54;101027.50;20882777;28;20710;-64
2021/07/08 09:03:34;;;;;;;27.85;25.23;;;;;;;36.51;48.02;101022.31;20826125;28;20268;-64
2021/07/08 09:14:06;;;;;;;25.33;22.98;;;;;;;36.44;45.08;101011.38;20834986;28;20622;-63
2021/07/08 09:24:16;;;;;;;26.83;24.35;;;;;;;36.06;47.22;101014.84;20808965;28;20648;-64
2021/07/08 09:34:21;;;;;;;24.58;22.40;;;;;;;35.50;48.40;101009.25;20833580;28;20227;-63
2021/07/08 09:44:24;;;;;;;25.23;22.95;;;;;;;34.84;49.96;100999.44;20817560;28;20327;-64
2021/07/08 10:05:02;;;;;;;22.65;20.63;;;;;;;35.38;50.42;100985.13;20809666;28;20242;-64
2021/07/08 10:15:06;;;;;;;21.60;19.75;;;;;;;35.34;50.12;100989.50;20825623;28;21254;-64
2021/07/08 10:25:08;;;;;;;23.73;21.65;;;;;;;35.36;50.78;100979.00;20827477;28;20228;-63
2021/07/08 10:35:10;;;;;;;24.75;22.45;;;;;;;35.89;50.78;100975.03;20807211;28;20615;-64
2021/07/08 10:45:38;;;;;;;27.20;24.60;;;;;;;36.18;47.09;100972.22;20822559;28;20255;-64
2021/07/08 10:55:41;;;;;;;25.60;23.40;;;;;;;35.85;49.61;100962.75;20813700;28;20726;-64
2021/07/08 11:05:55;;;;;;;26.50;24.20;;;;;;;35.67;47.69;100949.88;20832156;28;20228;-64
2021/07/08 11:15:55;;;;;;;22.40;20.65;;;;;;;35.94;51.05;100932.63;20812434;28;20227;-64
2021/07/08 11:25:56;;;;;;;22.67;20.50;;;;;;;36.30;50.29;100928.53;20823576;28;20334;-64
2021/07/08 11:36:02;;;;;;;23.70;21.65;;;;;;;36.55;49.87;100933.66;20813243;28;20696;-68
2021/07/08 11:46:10;;;;;;;22.35;20.35;;;;;;;36.83;49.99;100925.22;20804956;28;20231;-62
2021/07/08 11:56:11;;;;;;;24.77;22.67;;;;;;;36.59;48.88;100912.59;20821174;28;20234;-63
2021/07/08 12:06:16;;;;;;;22.23;20.33;;;;;;;36.65;49.41;100901.28;20799377;28;20881;-62
2021/07/08 12:16:29;;;;;;;25.10;22.90;;;;;;;36.52;49.25;100890.50;20818341;28;20310;-62
2021/07/08 12:26:35;;;;;;;22.92;20.80;;;;;;;36.44;49.33;100890.97;20809217;28;20230;-63
2021/07/08 12:36:36;;;;;;;22.25;20.45;;;;;;;36.49;50.65;100885.44;20837883;28;20258;-63
2021/07/08 12:46:38;;;;;;;22.05;20.15;;;;;;;36.66;49.59;100868.72;20823534;28;20235;-64
2021/07/08 12:56:40;;;;;;;21.30;19.60;;;;;;;37.00;48.88;100870.31;20872651;28;20231;-63
2021/07/08 13:06:40;;;;;;;20.05;18.27;;;;;;;36.88;48.81;100854.84;20855787;28;20235;-63
2021/07/08 13:16:41;;;;;;;20.92;19.13;;;;;;;36.75;49.47;100851.38;20829958;28;20584;-64
2021/07/08 13:26:45;;;;;;;17.88;16.38;;;;;;;38.40;46.44;100845.22;20857351;28;20230;-61
2021/07/08 13:36:45;;;;;;;17.98;16.67;;;;;;;39.03;45.98;100843.31;20830806;28;20313;-63
2021/07/08 13:46:58;;;;;;;16.65;15.35;;;;;;;39.20;43.72;100827.19;20828686;28;20466;-62
2021/07/08 13:57:00;;;;;;;18.17;16.75;;;;;;;39.00;45.76;100827.13;20805223;28;20337;-60
2021/07/08 14:07:01;;;;;;;17.23;15.93;;;;;;;38.80;45.83;100811.94;20831192;28;20334;-60
2021/07/08 14:17:02;;;;;;;16.55;15.23;;;;;;;38.85;46.45;100806.41;20854256;28;20637;-60
2021/07/08 14:27:03;;;;;;;17.05;15.55;;;;;;;39.42;45.63;100771.94;20893051;28;20560;-63
2021/07/08 14:37:04;;;;;;;16.33;15.05;;;;;;;38.42;47.10;100759.31;20876027;28;20273;-61
2021/07/08 14:47:06;;;;;;;16.35;15.05;;;;;;;38.51;47.26;100752.13;20889350;28;20227;-64
2021/07/08 14:57:06;;;;;;;17.65;16.23;;;;;;;37.94;46.75;100738.94;20882950;28;20330;-64
2021/07/08 15:07:07;;;;;;;17.83;16.52;;;;;;;36.62;49.63;100748.81;20881814;28;20224;-62
2021/07/08 15:17:09;;;;;;;30.50;27.85;;;;;;;36.25;52.11;100745.00;20890002;28;20309;-63
2021/07/08 15:27:10;;;;;;;20.27;18.67;;;;;;;35.56;52.48;100741.69;20871083;28;20337;-61
2021/07/08 15:52:14;;;;;;;10.90;8.07;;;;;;;29.99;53.42;100848.63;20588482;27;8270406;-64
2021/07/08 16:02:15;;;;;;;12.07;8.60;;;;;;;30.32;56.62;100885.22;20875887;28;20357;-63
2021/07/08 16:32:21;;;;;;;6.07;5.47;;;;;;;26.71;69.71;100819.59;20597838;27;8654019;-66
2021/07/08 16:42:21;;;;;;;6.23;4.97;;;;;;;26.77;69.46;100783.25;20890155;28;20224;-65
2021/07/08 16:52:23;;;;;;;5.78;5.15;;;;;;;26.49;70.91;100790.47;20862437;28;20229;-66
2021/07/08 17:02:24;;;;;;;4.60;4.30;;;;;;;27.02;70.22;100764.59;20868311;28;20569;-67
2021/07/08 17:12:25;;;;;;;6.27;5.77;;;;;;;27.28;72.30;100752.22;20807812;28;20229;-67
2021/07/08 17:22:26;;;;;;;7.77;7.07;;;;;;;27.16;72.95;100749.16;20777403;28;20217;-66
2021/07/08 17:32:27;;;;;;;8.20;7.60;;;;;;;27.22;73.29;100738.25;20870771;28;20218;-66
2021/07/08 17:42:27;;;;;;;9.60;8.80;;;;;;;28.21;69.45;100744.53;20799401;28;20226;-66
2021/07/08 17:52:28;;;;;;;8.10;7.40;;;;;;;29.06;67.28;100758.81;20819508;28;20287;-66
2021/07/08 18:02:29;;;;;;;8.73;8.03;;;;;;;28.57;68.54;100768.13;20793107;28;20275;-66
2021/07/08 18:12:30;;;;;;;8.67;7.80;;;;;;;28.35;68.25;100752.81;20815949;28;20633;-66
2021/07/08 18:22:31;;;;;;;10.07;9.20;;;;;;;27.74;70.94;100758.97;20780298;28;20554;-68
2021/07/08 18:32:31;;;;;;;10.30;9.47;;;;;;;27.43;72.50;100772.16;20805806;28;20756;-67
2021/07/08 18:52:44;;;;;;;11.03;9.73;;;;;;;27.28;73.78;100802.41;20769155;27;9548226;-67
2021/07/08 19:02:45;;;;;;;11.03;9.20;;;;;;;27.07;72.92;100802.38;21033574;28;20234;-70
2021/07/08 19:12:53;;;;;;;11.67;10.73;;;;;;;26.98;74.92;100822.72;21016557;28;20218;-68
2021/07/08 19:22:54;;;;;;;12.07;11.07;;;;;;;26.78;75.31;100826.03;21043294;28;20587;-69
2021/07/08 19:32:55;;;;;;;12.37;11.37;;;;;;;26.35;78.01;100827.75;21020751;28;21003;-71
2021/07/08 19:42:56;;;;;;;13.63;12.40;;;;;;;26.25;78.80;100818.09;21041763;28;20239;-68
2021/07/08 19:52:57;;;;;;;13.40;12.30;;;;;;;26.31;78.22;100803.72;21106106;28;20221;-69
2021/07/08 20:02:57;;;;;;;12.80;11.25;;;;;;;26.28;78.95;100804.94;21069708;28;20226;-69
2021/07/08 20:23:05;;;;;;;12.67;11.57;;;;;;;26.34;80.15;100776.78;20731729;27;8624434;-69
2021/07/08 20:33:05;;;;;;;16.40;14.70;;;;;;;26.14;81.58;100753.75;21042948;28;20233;-70
2021/07/08 20:43:06;;;;;;;14.53;13.33;;;;;;;26.16;81.55;100725.19;21025115;28;20224;-69
2021/07/08 21:03:15;;;;;;;16.27;14.57;;;;;;;26.19;81.65;100697.44;20573044;27;8521469;-69
2021/07/08 21:13:16;;;;;;;14.13;12.83;;;;;;;26.38;79.50;100695.16;20878236;28;20230;-66
2021/07/08 21:23:17;;;;;;;12.87;11.57;;;;;;;26.41;77.65;100692.06;20858877;28;20230;-66
2021/07/08 21:33:17;;;;;;;12.87;11.57;;;;;;;26.38;77.71;100703.38;20874177;28;20703;-64
2021/07/08 21:43:18;;;;;;;12.40;11.20;;;;;;;26.39;77.36;100691.41;20866012;28;20218;-65
2021/07/08 21:53:18;;;;;;;11.03;9.80;;;;;;;26.32;77.67;100685.00;20866188;28;20229;-66
2021/07/08 22:03:19;;;;;;;12.00;10.80;;;;;;;26.43;76.73;100670.81;20955134;28;20720;-66
2021/07/08 22:13:19;;;;;;;11.63;10.63;;;;;;;26.02;77.55;100657.66;20888697;28;20227;-68
2021/07/08 22:23:20;;;;;;;11.80;10.33;;;;;;;25.92;78.68;100657.09;20884348;28;20269;-68
2021/07/08 22:33:20;;;;;;;10.32;9.43;;;;;;;26.08;78.56;100648.66;20878146;28;20226;-67
2021/07/08 22:43:21;;;;;;;10.00;9.20;;;;;;;26.45;75.99;100658.63;20889762;28;20327;-66
2021/07/08 23:13:26;;;;;;;9.17;8.27;;;;;;;26.94;73.70;100676.22;20580573;27;8572566;-66
2021/07/08 23:23:26;;;;;;;10.33;8.73;;;;;;;27.19;72.53;100680.22;20869531;28;20227;-67
2021/07/08 23:33:27;;;;;;;8.90;8.17;;;;;;;27.48;72.33;100704.72;20875020;28;20233;-67
